createdAt,value
2022-12-06T00:00:04.884Z,37.55
2022-12-06T00:03:05.057Z,37.25
2022-12-06T00:05:41.888Z,36.95
2022-12-06T00:08:18.693Z,38.03
2022-12-06T00:10:51.545Z,42.47
2022-12-06T00:13:24.092Z,40.17
2022-12-06T00:15:59.853Z,35.50
2022-12-06T00:18:36.444Z,50.28
2022-12-06T00:21:11.238Z,44.00
2022-12-06T00:23:44.948Z,68.00
2022-12-06T00:26:18.020Z,89.25
2022-12-06T00:28:52.860Z,54.30
2022-12-06T00:31:27.136Z,47.03
2022-12-06T00:33:59.738Z,38.53
2022-12-06T00:36:33.805Z,47.58
2022-12-06T00:39:07.851Z,44.33
2022-12-06T00:41:41.325Z,40.10
2022-12-06T00:44:14.020Z,38.80
2022-12-06T00:46:47.115Z,23.98
2022-12-06T00:49:19.699Z,25.60
2022-12-06T00:51:52.684Z,34.90
2022-12-06T00:54:25.285Z,28.50
2022-12-06T00:56:58.362Z,26.58
2022-12-06T00:59:30.939Z,31.55
2022-12-06T01:02:03.825Z,30.00
2022-12-06T01:04:36.893Z,25.85
2022-12-06T01:07:09.723Z,41.60
2022-12-06T01:09:42.847Z,34.25
2022-12-06T01:12:15.764Z,25.10
2022-12-06T01:14:48.241Z,37.72
2022-12-06T01:17:21.209Z,32.17
2022-12-06T01:19:53.899Z,27.70
2022-12-06T01:22:27.211Z,35.90
2022-12-06T01:24:59.827Z,30.92
2022-12-06T01:27:32.770Z,28.15
2022-12-06T01:30:06.227Z,24.88
2022-12-06T01:32:39.176Z,29.30
2022-12-06T01:35:11.621Z,28.50
2022-12-06T01:37:44.517Z,39.72
2022-12-06T01:40:17.168Z,32.28
2022-12-06T01:42:50.063Z,41.17
2022-12-06T01:45:22.622Z,33.58
2022-12-06T01:47:55.499Z,30.30
2022-12-06T01:50:29.921Z,38.47
2022-12-06T01:53:08.487Z,32.03
2022-12-06T01:55:41.460Z,31.80
2022-12-06T01:58:18.289Z,32.58
2022-12-06T02:00:51.049Z,33.78
2022-12-06T02:03:26.127Z,37.25
2022-12-06T02:05:59.763Z,32.72
2022-12-06T02:08:33.119Z,31.65
2022-12-06T02:11:06.395Z,35.65
2022-12-06T02:13:39.831Z,37.55
2022-12-06T02:16:21.554Z,32.67
2022-12-06T02:19:13.312Z,28.77
2022-12-06T02:21:54.762Z,36.47
2022-12-06T02:27:27.452Z,34.60
2022-12-06T02:30:11.271Z,31.90
2022-12-06T02:33:16.209Z,36.28
2022-12-06T02:36:15.129Z,32.90
2022-12-06T02:38:49.758Z,28.02
2022-12-06T02:41:43.809Z,36.78
2022-12-06T02:44:36.655Z,33.85
2022-12-06T02:47:12.196Z,36.13
2022-12-06T02:49:46.942Z,32.88
2022-12-06T02:52:20.739Z,37.40
2022-12-06T02:54:55.871Z,31.92
2022-12-06T02:57:48.051Z,33.40
2022-12-06T03:00:29.983Z,26.02
2022-12-06T03:03:21.398Z,26.80
2022-12-06T03:06:03.622Z,34.40
2022-12-06T03:08:48.664Z,31.38
2022-12-06T03:11:21.286Z,28.13
2022-12-06T03:13:54.123Z,22.92
2022-12-06T03:16:31.628Z,28.77
2022-12-06T03:19:13.680Z,29.60
2022-12-06T03:21:46.189Z,30.45
2022-12-06T03:24:19.799Z,34.03
2022-12-06T03:26:53.144Z,31.13
2022-12-06T03:29:28.395Z,29.58
2022-12-06T03:32:03.330Z,29.67
2022-12-06T03:34:39.571Z,28.00
2022-12-06T03:37:14.671Z,31.15
2022-12-06T03:39:50.355Z,39.88
2022-12-06T03:42:22.843Z,36.20
2022-12-06T03:44:55.969Z,30.35
2022-12-06T03:47:41.015Z,37.35
2022-12-06T03:50:23.345Z,31.90
2022-12-06T03:52:56.158Z,35.22
2022-12-06T03:55:29.019Z,50.13
2022-12-06T03:58:01.607Z,31.30
2022-12-06T04:00:34.511Z,31.67
2022-12-06T04:03:07.033Z,51.30
2022-12-06T04:05:40.445Z,36.13
2022-12-06T04:08:12.998Z,34.53
2022-12-06T04:10:45.917Z,32.55
2022-12-06T04:13:19.842Z,35.40
2022-12-06T04:15:55.779Z,29.58
2022-12-06T04:18:28.678Z,42.78
2022-12-06T04:21:21.447Z,28.92
2022-12-06T04:23:54.415Z,31.63
2022-12-06T04:26:27.451Z,31.50
2022-12-06T04:29:19.297Z,36.63
2022-12-06T04:32:10.553Z,39.10
2022-12-06T04:35:01.290Z,39.75
2022-12-06T04:37:52.618Z,31.38
2022-12-06T04:40:25.113Z,33.95
2022-12-06T04:43:16.324Z,40.88
2022-12-06T04:45:48.841Z,27.20
2022-12-06T04:48:22.000Z,36.40
2022-12-06T04:50:54.530Z,39.42
2022-12-06T04:53:27.440Z,32.28
2022-12-06T04:55:59.960Z,34.08
2022-12-06T04:58:32.808Z,39.03
2022-12-06T05:01:05.877Z,49.53
2022-12-06T05:03:43.992Z,39.90
2022-12-06T05:06:17.074Z,46.30
2022-12-06T05:08:50.043Z,40.47
2022-12-06T05:11:22.614Z,40.42
2022-12-06T05:13:55.640Z,35.80
2022-12-06T05:16:28.241Z,39.55
2022-12-06T05:19:01.285Z,39.15
2022-12-06T05:21:33.855Z,37.78
2022-12-06T05:24:07.189Z,36.08
2022-12-06T05:26:39.700Z,36.78
2022-12-06T05:29:12.668Z,41.17
2022-12-06T05:31:45.245Z,42.83
2022-12-06T05:34:18.103Z,47.90
2022-12-06T05:36:50.674Z,43.30
2022-12-06T05:39:23.696Z,41.70
2022-12-06T05:41:56.254Z,41.53
2022-12-06T05:44:29.164Z,35.05
2022-12-06T05:47:01.879Z,39.20
2022-12-06T05:49:34.897Z,51.47
2022-12-06T05:52:10.147Z,51.30
2022-12-06T05:54:43.078Z,41.15
2022-12-06T05:57:15.708Z,38.35
2022-12-06T05:59:48.640Z,39.60
2022-12-06T06:02:21.427Z,43.85
2022-12-06T06:04:54.524Z,40.03
2022-12-06T06:07:26.957Z,42.63
2022-12-06T06:10:00.257Z,27.90
2022-12-06T06:12:33.140Z,38.92
2022-12-06T06:15:08.031Z,44.25
2022-12-06T06:17:40.952Z,33.10
2022-12-06T06:20:14.271Z,26.27
2022-12-06T06:22:46.833Z,24.88
2022-12-06T06:25:19.737Z,30.38
2022-12-06T06:27:52.674Z,27.70
2022-12-06T06:30:25.596Z,26.05
2022-12-06T06:32:58.240Z,31.45
2022-12-06T06:35:31.363Z,34.10
2022-12-06T06:38:04.107Z,30.33
2022-12-06T06:40:37.123Z,34.70
2022-12-06T06:43:18.944Z,42.83
2022-12-06T06:45:58.999Z,43.53
2022-12-06T06:48:32.683Z,34.10
2022-12-06T06:51:06.932Z,48.78
2022-12-06T06:53:39.759Z,30.95
2022-12-06T06:56:12.952Z,27.20
2022-12-06T06:58:46.111Z,29.85
2022-12-06T07:01:20.263Z,34.08
2022-12-06T07:03:52.845Z,30.48
2022-12-06T07:06:26.287Z,45.30
2022-12-06T07:08:58.932Z,29.42
2022-12-06T07:11:31.863Z,31.35
2022-12-06T07:14:04.440Z,21.98
2022-12-06T07:16:37.934Z,22.65
2022-12-06T07:19:10.614Z,23.65
2022-12-06T07:21:43.499Z,26.27
2022-12-06T07:24:16.007Z,22.77
2022-12-06T07:26:48.976Z,29.42
2022-12-06T07:29:21.587Z,25.05
2022-12-06T07:31:54.495Z,32.22
2022-12-06T07:34:27.031Z,23.08
2022-12-06T07:36:59.936Z,22.30
2022-12-06T07:39:32.768Z,27.42
2022-12-06T07:42:24.292Z,34.13
2022-12-06T07:45:02.557Z,27.65
2022-12-06T07:47:36.967Z,29.70
2022-12-06T07:50:17.358Z,32.78
2022-12-06T07:52:50.897Z,28.13
2022-12-06T07:55:23.415Z,22.98
2022-12-06T07:57:56.417Z,23.02
2022-12-06T08:00:28.926Z,21.42
2022-12-06T08:03:01.834Z,23.85
2022-12-06T08:05:34.387Z,21.42
2022-12-06T08:08:07.604Z,16.55
2022-12-06T08:10:40.199Z,17.58
2022-12-06T08:13:13.135Z,19.73
2022-12-06T08:15:45.706Z,22.15
2022-12-06T08:18:19.261Z,19.80
2022-12-06T08:20:53.570Z,20.90
2022-12-06T08:23:32.250Z,23.08
2022-12-06T08:26:07.827Z,18.75
2022-12-06T08:28:40.796Z,15.35
2022-12-06T08:31:17.976Z,22.50
2022-12-06T08:33:51.004Z,16.40
2022-12-06T08:36:24.640Z,18.13
2022-12-06T08:38:59.234Z,26.55
2022-12-06T08:41:50.241Z,20.63
2022-12-06T08:44:23.162Z,24.52
2022-12-06T08:46:56.366Z,23.13
2022-12-06T08:49:29.888Z,17.52
2022-12-06T08:52:02.499Z,23.55
2022-12-06T08:54:36.720Z,16.27
2022-12-06T08:57:19.833Z,20.02
2022-12-06T09:00:00.123Z,21.35
2022-12-06T09:02:32.839Z,25.83
2022-12-06T09:05:06.124Z,13.13
2022-12-06T09:07:38.688Z,15.85
2022-12-06T09:10:11.822Z,16.02
2022-12-06T09:12:44.323Z,25.52
2022-12-06T09:15:17.281Z,15.75
2022-12-06T09:17:49.900Z,18.67
2022-12-06T09:20:22.998Z,18.00
2022-12-06T09:22:55.647Z,19.73
2022-12-06T09:25:28.483Z,13.82
2022-12-06T09:28:01.102Z,19.38
2022-12-06T09:30:34.055Z,16.90
2022-12-06T09:33:06.589Z,17.40
2022-12-06T09:35:39.506Z,15.38
2022-12-06T09:38:12.193Z,20.98
2022-12-06T09:40:45.360Z,16.30
2022-12-06T09:43:17.920Z,14.98
2022-12-06T09:46:01.889Z,14.05
2022-12-06T09:48:49.259Z,16.77
2022-12-06T09:51:41.147Z,17.38
2022-12-06T09:54:51.143Z,13.38
2022-12-06T09:57:31.619Z,15.63
2022-12-06T10:00:11.270Z,10.98
2022-12-06T10:03:04.195Z,18.42
2022-12-06T10:05:55.724Z,12.57
2022-12-06T10:08:31.471Z,11.90
2022-12-06T10:11:12.834Z,11.13
2022-12-06T10:14:04.397Z,14.35
2022-12-06T10:16:54.985Z,15.07
2022-12-06T10:19:40.833Z,15.73
2022-12-06T10:22:20.568Z,21.90
2022-12-06T10:24:56.155Z,26.67
2022-12-06T10:27:39.513Z,12.23
2022-12-06T10:30:13.434Z,14.10
2022-12-06T10:32:51.845Z,16.95
2022-12-06T10:35:41.919Z,17.13
2022-12-06T10:38:25.959Z,14.25
2022-12-06T10:40:59.386Z,18.85
2022-12-06T10:43:50.534Z,14.15
2022-12-06T10:47:05.411Z,19.13
2022-12-06T10:50:03.006Z,12.43
2022-12-06T10:52:39.020Z,13.27
2022-12-06T10:55:11.732Z,15.77
2022-12-06T10:57:53.899Z,14.05
2022-12-06T11:00:29.636Z,13.63
2022-12-06T11:03:18.088Z,14.15
2022-12-06T11:05:53.807Z,15.82
2022-12-06T11:08:37.837Z,16.63
2022-12-06T11:11:16.069Z,15.05
2022-12-06T11:13:49.041Z,14.43
2022-12-06T11:16:21.639Z,11.88
2022-12-06T11:18:57.282Z,13.05
2022-12-06T11:21:46.716Z,14.48
2022-12-06T11:24:35.733Z,14.85
2022-12-06T11:27:35.083Z,12.20
2022-12-06T11:30:20.008Z,12.18
2022-12-06T11:32:53.387Z,11.43
2022-12-06T11:35:27.868Z,11.68
2022-12-06T11:38:05.757Z,11.85
2022-12-06T11:40:42.781Z,10.10
2022-12-06T11:43:20.518Z,10.55
2022-12-06T11:45:54.061Z,11.55
2022-12-06T11:48:28.963Z,12.95
2022-12-06T11:51:02.273Z,16.60
2022-12-06T11:53:41.028Z,8.00
2022-12-06T11:56:30.576Z,7.53
2022-12-06T11:59:03.875Z,7.25
2022-12-06T12:01:38.269Z,5.60
2022-12-06T12:04:43.179Z,10.25
2022-12-06T12:07:17.764Z,5.30
2022-12-06T12:09:53.371Z,13.68
2022-12-06T12:12:50.547Z,11.18
2022-12-06T12:15:23.449Z,10.82
2022-12-06T12:17:58.767Z,6.38
2022-12-06T12:20:34.261Z,12.85
2022-12-06T12:23:14.955Z,8.27
2022-12-06T12:26:05.162Z,7.70
2022-12-06T12:28:41.065Z,8.70
2022-12-06T12:31:21.064Z,11.27
2022-12-06T12:34:13.439Z,18.98
2022-12-06T12:39:25.732Z,9.00
2022-12-06T12:42:02.971Z,7.57
2022-12-06T12:44:39.729Z,10.77
2022-12-06T12:47:21.692Z,8.82
2022-12-06T12:50:00.724Z,9.43
2022-12-06T12:52:37.428Z,8.60
2022-12-06T12:55:16.656Z,5.63
2022-12-06T12:57:53.664Z,11.85
2022-12-06T13:00:30.422Z,12.32
2022-12-06T13:03:14.196Z,6.88
2022-12-06T13:05:59.083Z,8.63
2022-12-06T13:08:35.294Z,7.13
2022-12-06T13:11:09.111Z,9.18
2022-12-06T13:13:48.071Z,8.95
2022-12-06T13:16:28.034Z,6.18
2022-12-06T13:19:01.875Z,6.88
2022-12-06T13:21:34.707Z,8.63
2022-12-06T13:24:10.268Z,7.47
2022-12-06T13:26:46.196Z,7.30
2022-12-06T13:29:18.844Z,7.10
2022-12-06T13:31:52.781Z,12.13
2022-12-06T13:35:00.833Z,6.78
2022-12-06T13:37:35.995Z,7.03
2022-12-06T13:40:31.513Z,5.57
2022-12-06T13:43:07.040Z,6.78
2022-12-06T13:45:45.651Z,9.55
2022-12-06T13:48:24.993Z,8.65
2022-12-06T13:50:57.760Z,4.32
2022-12-06T13:53:34.303Z,4.47
2022-12-06T13:56:25.504Z,11.60
2022-12-06T13:58:59.695Z,4.13
2022-12-06T14:01:45.557Z,8.90
2022-12-06T14:04:24.610Z,6.78
2022-12-06T14:07:00.586Z,7.65
2022-12-06T14:09:42.107Z,7.90
2022-12-06T14:12:19.861Z,7.88
2022-12-06T14:15:00.143Z,7.28
2022-12-06T14:18:01.554Z,4.35
2022-12-06T14:20:31.885Z,9.10
2022-12-06T14:23:21.956Z,5.85
2022-12-06T14:26:13.561Z,7.25
2022-12-06T14:28:46.802Z,6.97
2022-12-06T14:31:22.326Z,5.15
2022-12-06T14:33:55.744Z,7.65
2022-12-06T14:36:28.849Z,5.38
2022-12-06T14:39:12.922Z,7.13
2022-12-06T14:42:14.085Z,7.35
2022-12-06T14:44:51.536Z,10.05
2022-12-06T14:47:24.588Z,6.10
2022-12-06T14:50:17.283Z,6.32
2022-12-06T14:52:59.080Z,4.97
2022-12-06T14:55:33.875Z,5.93
2022-12-06T14:58:16.945Z,7.20
2022-12-06T15:00:56.766Z,5.57
2022-12-06T15:03:32.477Z,10.82
2022-12-06T15:06:13.702Z,11.15
2022-12-06T15:08:55.301Z,10.48
2022-12-06T15:11:54.260Z,10.55
2022-12-06T15:14:47.132Z,7.57
2022-12-06T15:17:22.042Z,7.20
2022-12-06T15:19:55.028Z,10.50
2022-12-06T15:22:29.356Z,8.65
2022-12-06T15:25:04.025Z,10.15
2022-12-06T15:27:37.152Z,9.45
2022-12-06T15:30:12.995Z,7.82
2022-12-06T15:32:45.622Z,16.58
2022-12-06T15:35:18.952Z,8.25
2022-12-06T15:37:51.713Z,14.27
2022-12-06T15:40:24.925Z,18.17
2022-12-06T15:43:02.166Z,28.40
2022-12-06T15:45:35.625Z,27.67
2022-12-06T15:48:09.247Z,38.90
2022-12-06T15:50:42.311Z,30.20
2022-12-06T15:53:19.611Z,33.05
2022-12-06T15:55:53.021Z,31.52
2022-12-06T15:58:26.522Z,30.63
2022-12-06T16:01:00.778Z,28.13
2022-12-06T16:03:33.499Z,18.60
2022-12-06T16:06:10.688Z,24.67
2022-12-06T16:08:43.695Z,13.15
2022-12-06T16:11:17.795Z,13.02
2022-12-06T16:13:51.097Z,16.10
2022-12-06T16:16:24.326Z,21.75
2022-12-06T16:18:57.067Z,42.17
2022-12-06T16:21:32.015Z,26.20
2022-12-06T16:24:14.212Z,33.88
2022-12-06T16:26:48.289Z,13.07
2022-12-06T16:29:25.406Z,17.80
2022-12-06T16:31:58.791Z,11.38
2022-12-06T16:34:31.483Z,11.00
2022-12-06T16:37:06.834Z,18.77
2022-12-06T16:39:39.807Z,27.42
2022-12-06T16:42:12.798Z,28.63
2022-12-06T16:44:54.099Z,21.83
2022-12-06T16:49:58.217Z,37.35
2022-12-06T16:52:31.174Z,31.83
2022-12-06T16:55:04.307Z,13.57
2022-12-06T16:57:40.666Z,12.10
2022-12-06T17:00:14.308Z,31.90
2022-12-06T17:02:47.372Z,22.58
2022-12-06T17:05:26.113Z,23.02
2022-12-06T17:08:02.300Z,47.40
2022-12-06T17:10:35.020Z,24.33
2022-12-06T17:13:08.164Z,17.60
2022-12-06T17:15:41.236Z,54.05
2022-12-06T17:18:14.228Z,29.17
2022-12-06T17:20:46.745Z,27.70
2022-12-06T17:23:19.695Z,30.33
2022-12-06T17:25:58.123Z,23.83
2022-12-06T17:28:31.161Z,20.35
2022-12-06T17:31:07.413Z,22.60
2022-12-06T17:33:40.448Z,11.68
2022-12-06T17:36:13.422Z,20.33
2022-12-06T17:38:46.515Z,28.30
2022-12-06T17:41:55.701Z,25.05
2022-12-06T17:44:28.729Z,19.80
2022-12-06T17:47:01.672Z,15.63
2022-12-06T17:49:36.983Z,12.80
2022-12-06T17:52:12.764Z,14.02
2022-12-06T17:54:45.904Z,17.35
2022-12-06T17:57:18.791Z,16.67
2022-12-06T17:59:51.920Z,18.35
2022-12-06T18:02:26.094Z,19.33
2022-12-06T18:05:00.765Z,10.48
2022-12-06T18:07:33.780Z,12.98
2022-12-06T18:10:07.272Z,11.20
2022-12-06T18:12:39.780Z,14.75
2022-12-06T18:15:32.603Z,9.32
2022-12-06T18:18:05.455Z,10.65
2022-12-06T18:20:38.379Z,11.02
2022-12-06T18:23:10.992Z,16.48
2022-12-06T18:25:44.216Z,16.23
2022-12-06T18:28:16.790Z,15.15
2022-12-06T18:30:50.044Z,14.50
2022-12-06T18:33:25.398Z,13.57
2022-12-06T18:36:02.712Z,23.67
2022-12-06T18:38:35.906Z,12.52
2022-12-06T18:41:09.112Z,19.58
2022-12-06T18:43:42.094Z,14.82
2022-12-06T18:46:16.990Z,17.92
2022-12-06T18:48:51.050Z,17.10
2022-12-06T18:51:25.071Z,13.52
2022-12-06T18:53:58.622Z,14.63
2022-12-06T18:56:32.045Z,15.25
2022-12-06T18:59:07.539Z,11.20
2022-12-06T19:01:41.199Z,15.52
2022-12-06T19:04:15.069Z,9.73
2022-12-06T19:06:48.113Z,13.38
2022-12-06T19:09:22.691Z,8.85
2022-12-06T19:11:55.868Z,11.73
2022-12-06T19:14:28.512Z,15.38
2022-12-06T19:17:01.565Z,12.57
2022-12-06T19:19:35.445Z,12.10
2022-12-06T19:22:09.148Z,10.63
2022-12-06T19:24:41.813Z,10.00
2022-12-06T19:27:17.459Z,18.15
2022-12-06T19:29:52.538Z,16.73
2022-12-06T19:32:25.443Z,10.07
2022-12-06T19:35:01.476Z,12.32
2022-12-06T19:37:38.154Z,18.83
2022-12-06T19:40:11.503Z,15.27
2022-12-06T19:43:02.721Z,13.73
2022-12-06T19:45:35.209Z,14.80
2022-12-06T19:48:08.255Z,15.18
2022-12-06T19:50:40.796Z,19.55
2022-12-06T19:53:13.633Z,8.20
2022-12-06T19:55:46.464Z,13.93
2022-12-06T19:58:20.263Z,8.90
2022-12-06T20:00:52.873Z,11.90
2022-12-06T20:03:26.159Z,12.90
2022-12-06T20:06:06.033Z,13.90
2022-12-06T20:08:39.052Z,14.88
2022-12-06T20:11:30.756Z,22.23
2022-12-06T20:14:04.941Z,19.20
2022-12-06T20:16:38.234Z,38.55
2022-12-06T20:19:12.276Z,86.10
2022-12-06T20:21:46.070Z,71.68
2022-12-06T20:24:20.511Z,76.30
2022-12-06T20:26:53.930Z,43.67
2022-12-06T20:29:27.468Z,43.60
2022-12-06T20:32:00.375Z,33.97
2022-12-06T20:34:35.179Z,33.95
2022-12-06T20:37:08.457Z,22.60
2022-12-06T20:39:41.465Z,14.02
2022-12-06T20:42:14.000Z,17.75
2022-12-06T20:44:50.108Z,22.70
2022-12-06T20:47:22.704Z,37.35
2022-12-06T20:49:56.507Z,16.05
2022-12-06T20:52:29.003Z,12.45
2022-12-06T20:55:01.865Z,14.50
2022-12-06T20:57:34.410Z,15.57
2022-12-06T21:00:08.139Z,11.13
2022-12-06T21:02:40.876Z,10.10
2022-12-06T21:05:14.860Z,9.80
2022-12-06T21:07:47.545Z,10.50
2022-12-06T21:10:20.525Z,12.02
2022-12-06T21:12:53.135Z,12.15
2022-12-06T21:15:26.040Z,13.10
2022-12-06T21:17:58.669Z,9.50
2022-12-06T21:20:31.526Z,10.40
2022-12-06T21:23:03.992Z,14.98
2022-12-06T21:25:37.767Z,15.23
2022-12-06T21:28:10.539Z,7.70
2022-12-06T21:30:49.152Z,12.05
2022-12-06T21:33:22.702Z,10.23
2022-12-06T21:35:55.552Z,6.00
2022-12-06T21:38:29.837Z,16.40
2022-12-06T21:41:07.369Z,7.40
2022-12-06T21:43:40.257Z,9.57
2022-12-06T21:46:22.902Z,11.00
2022-12-06T21:48:57.496Z,8.30
2022-12-06T21:51:31.680Z,15.23
2022-12-06T21:54:04.273Z,8.55
2022-12-06T21:56:38.543Z,8.23
2022-12-06T21:59:11.223Z,14.63
2022-12-06T22:01:45.020Z,12.35
2022-12-06T22:04:17.568Z,11.13
2022-12-06T22:06:50.456Z,18.23
2022-12-06T22:09:23.026Z,13.90
2022-12-06T22:11:56.081Z,19.73
2022-12-06T22:14:28.889Z,11.05
2022-12-06T22:17:01.769Z,12.65
2022-12-06T22:19:34.356Z,14.27
2022-12-06T22:22:07.272Z,10.73
2022-12-06T22:24:39.723Z,8.20
2022-12-06T22:27:12.625Z,14.18
2022-12-06T22:29:45.176Z,9.38
2022-12-06T22:32:18.015Z,13.70
2022-12-06T22:34:50.642Z,10.80
2022-12-06T22:37:28.353Z,10.10
2022-12-06T22:40:01.522Z,10.75
2022-12-06T22:42:35.260Z,13.65
2022-12-06T22:45:07.975Z,15.70
2022-12-06T22:47:41.105Z,5.85
2022-12-06T22:50:13.918Z,9.35
2022-12-06T22:52:46.826Z,12.13
2022-12-06T22:55:19.345Z,5.90
2022-12-06T22:57:52.333Z,25.05
2022-12-06T23:00:24.802Z,51.55
2022-12-06T23:02:59.206Z,55.03
2022-12-06T23:05:31.750Z,58.60
2022-12-06T23:08:04.937Z,31.65
2022-12-06T23:10:37.657Z,24.65
2022-12-06T23:13:10.585Z,12.70
2022-12-06T23:15:43.084Z,9.65
2022-12-06T23:18:15.983Z,14.07
2022-12-06T23:20:48.464Z,12.60
2022-12-06T23:23:21.404Z,5.85
2022-12-06T23:25:53.954Z,14.05
2022-12-06T23:28:26.975Z,13.52
2022-12-06T23:31:03.671Z,9.73
2022-12-06T23:33:36.540Z,10.70
2022-12-06T23:36:11.197Z,10.05
2022-12-06T23:38:44.337Z,17.60
